Papa Wise — WDI3503 — position and weather

sailwx.info

Track history (hours):
 
Tides and Currents Weather Stations Pressure Air Temp Water Temp Dewpoint Dewpoint Depression Visibility Wind Speed Wind Dir Waves Ship Positions

Papa Wise

Owner: GNOTS RESERVE, INC., DESTREHAN, LA. More information available from US FCC via Universal Licensing System and Coast Guard Vessel Documentation Center.

Last reported at 2018-Jul-20 13:55 UTC. Time now 2018-Jul-21 07:59 UTC.
Position N 29°38' W 089°55'.

Length 23 m.

Type: Towing. MMSI: 367689010.

Date/timePositionNaut miles runAvg speedWind from/ knotsBaromVisibWave heightAir tempDewpointWater temp
2018-Jul-20 13:55N 29°38' W 089°55'0 0.3
2018-Jul-20 13:28N 29°38' W 089°55'1 1.2
2018-Jul-20 13:00N 29°38' W 089°55'3 4.8
2018-Jul-20 12:28N 29°40' W 089°58'3 6.0
2018-Jul-20 11:56N 29°43' W 089°59'3 5.5
2018-Jul-20 11:26N 29°45' W 090°01'6 5.9
2018-Jul-20 10:30N 29°50' W 089°59'3 5.5
2018-Jul-20 10:00N 29°53' W 089°58'3 5.7
2018-Jul-20 09:28N 29°52' W 089°55'4 4.6
2018-Jul-20 08:40N 29°55' W 089°56'3 6.0
2018-Jul-20 08:12N 29°56' W 089°60'13 0.3
2018-Jul-18 10:06N 29°58' W 090°14'2 0.1
2018-Jul-17 09:52N 29°58' W 090°17'3 6.2
2018-Jul-17 09:25N 29°56' W 090°19'  
Track history (hours):
 
Tides and Currents Weather Stations Pressure Air Temp Water Temp Dewpoint Dewpoint Depression Visibility Wind Speed Wind Dir Waves Ship Positions

Papa Wise

Owner: GNOTS RESERVE, INC., DESTREHAN, LA. More information available from US FCC via Universal Licensing System and Coast Guard Vessel Documentation Center.

Last reported at 2018-Jul-20 13:55 UTC. Time now 2018-Jul-21 07:59 UTC.
Position N 29°38' W 089°55'.

Length 23 m.

Type: Towing. MMSI: 367689010.

Date/timePositionNaut miles runAvg speedWind from/ knotsBaromVisibWave heightAir tempDewpointWater temp
2018-Jul-20 13:55N 29°38' W 089°55'0 0.3
2018-Jul-20 13:28N 29°38' W 089°55'1 1.2
2018-Jul-20 13:00N 29°38' W 089°55'3 4.8
2018-Jul-20 12:28N 29°40' W 089°58'3 6.0
2018-Jul-20 11:56N 29°43' W 089°59'3 5.5
2018-Jul-20 11:26N 29°45' W 090°01'6 5.9
2018-Jul-20 10:30N 29°50' W 089°59'3 5.5
2018-Jul-20 10:00N 29°53' W 089°58'3 5.7
2018-Jul-20 09:28N 29°52' W 089°55'4 4.6
2018-Jul-20 08:40N 29°55' W 089°56'3 6.0
2018-Jul-20 08:12N 29°56' W 089°60'13 0.3
2018-Jul-18 10:06N 29°58' W 090°14'2 0.1
2018-Jul-17 09:52N 29°58' W 090°17'3 6.2
2018-Jul-17 09:25N 29°56' W 090°19'  

Dump ship's entire track history